Time;durP1;ratioP1;P1;durP2;ratioP2;P2;SDS_P1;SDS_P2;PMS_P1;PMS_P2;Temp;Humidity;BMP_temperature;BMP_pressure;BME280_temperature;BME280_humidity;BME280_pressure;Samples;Min_cycle;Max_cycle;Signal;HPM_P1;HPM_P2
2021/12/13 00:02:33;;;;;;;35.90;28.70;;;10.60;99.90;;;;;;5053523;28;20090;-79
2021/12/13 00:05:06;;;;;;;31.40;24.27;;;10.60;99.90;;;;;;5052210;28;20029;-80
2021/12/13 00:07:34;;;;;;;;;;;10.60;99.90;;;;;;5053246;28;20033;-78
2021/12/13 00:10:06;;;;;;;29.90;23.43;;;10.60;99.90;;;;;;5052440;28;19916;-78
2021/12/13 00:12:36;;;;;;;32.47;25.17;;;10.50;99.90;;;;;;5052700;28;20056;-78
2021/12/13 00:15:07;;;;;;;37.30;28.80;;;10.50;99.90;;;;;;5053955;28;20033;-80
2021/12/13 00:17:47;;;;;;;32.40;24.63;;;10.50;99.90;;;;;;5055654;28;20028;-79
2021/12/13 00:20:28;;;;;;;32.70;24.23;;;10.40;99.90;;;;;;5056169;28;20022;-78
2021/12/13 00:22:57;;;;;;;28.10;22.13;;;10.40;99.90;;;;;;5053782;28;20021;-79
2021/12/13 00:25:27;;;;;;;29.30;22.57;;;10.30;99.90;;;;;;5053414;28;20029;-79
2021/12/13 00:28:07;;;;;;;29.13;24.03;;;10.20;99.90;;;;;;5052449;28;20040;-79
2021/12/13 00:30:47;;;;;;;25.23;20.07;;;10.20;99.90;;;;;;5052637;28;20021;-79
2021/12/13 00:33:31;;;;;;;30.93;24.77;;;10.20;99.90;;;;;;5052220;28;20048;-79
2021/12/13 00:36:38;;;;;;;30.83;23.70;;;10.10;99.90;;;;;;5052340;28;20087;-78
2021/12/13 00:39:29;;;;;;;30.57;23.60;;;10.10;99.90;;;;;;5053703;28;20021;-79
2021/12/13 00:41:55;;;;;;;27.90;22.10;;;10.10;99.90;;;;;;5053346;28;20017;-78
2021/12/13 00:44:31;;;;;;;33.53;26.00;;;10.10;99.90;;;;;;5051855;28;20040;-79
2021/12/13 00:47:03;;;;;;;29.80;23.03;;;10.10;99.90;;;;;;5053664;28;20017;-78
2021/12/13 00:49:32;;;;;;;26.40;20.00;;;10.10;99.90;;;;;;5052191;28;20476;-79
2021/12/13 00:51:59;;;;;;;28.00;22.00;;;10.10;99.90;;;;;;5051616;28;20062;-79
2021/12/13 00:54:39;;;;;;;33.87;23.07;;;10.10;99.90;;;;;;5052157;28;20025;-79
2021/12/13 00:57:27;;;;;;;31.23;23.07;;;10.20;99.90;;;;;;5036050;28;20025;-79
2021/12/13 01:00:10;;;;;;;29.43;23.83;;;10.20;99.90;;;;;;5046459;28;20544;-80
2021/12/13 01:02:48;;;;;;;28.27;21.00;;;10.20;99.90;;;;;;5053955;28;20025;-79
2021/12/13 01:05:16;;;;;;;30.03;23.77;;;10.20;99.90;;;;;;5053809;28;20040;-80
2021/12/13 01:08:00;;;;;;;26.17;18.47;;;10.20;99.90;;;;;;5053558;28;20040;-77
2021/12/13 01:10:54;;;;;;;26.67;20.00;;;10.20;99.90;;;;;;5052047;28;20124;-80
2021/12/13 01:13:38;;;;;;;26.70;19.40;;;10.20;99.90;;;;;;5053115;28;20029;-78
2021/12/13 01:16:35;;;;;;;27.80;21.57;;;10.20;99.90;;;;;;5053475;28;20025;-78
2021/12/13 01:22:23;;;;;;;27.63;20.13;;;10.20;99.90;;;;;;5052964;28;20041;-80
2021/12/13 01:25:15;;;;;;;24.33;18.07;;;10.20;99.90;;;;;;5051668;28;20438;-78
2021/12/13 01:27:42;;;;;;;26.27;20.77;;;10.20;99.90;;;;;;5054006;28;20104;-79
2021/12/13 01:30:14;;;;;;;23.87;19.17;;;10.20;99.90;;;;;;5055667;28;20021;-77
2021/12/13 01:32:44;;;;;;;20.93;16.40;;;10.20;99.90;;;;;;5052331;28;20025;-81
2021/12/13 01:35:25;;;;;;;21.57;17.30;;;10.10;99.90;;;;;;5056981;28;20287;-78
2021/12/13 01:37:54;;;;;;;20.10;16.00;;;10.20;99.90;;;;;;5052858;28;20128;-77
2021/12/13 01:40:26;;;;;;;26.67;20.20;;;10.20;99.90;;;;;;5051577;28;20032;-77
2021/12/13 01:43:15;;;;;;;25.60;18.97;;;10.20;99.90;;;;;;5052841;28;20027;-78
2021/12/13 01:45:43;;;;;;;24.80;18.83;;;10.20;99.90;;;;;;5053526;28;20028;-78
2021/12/13 01:48:17;;;;;;;21.83;17.13;;;10.20;99.90;;;;;;5035330;28;20029;-80
2021/12/13 01:50:51;;;;;;;20.80;17.27;;;10.20;99.90;;;;;;5052613;28;20036;-79
2021/12/13 01:53:28;;;;;;;18.83;15.67;;;10.20;99.90;;;;;;5021576;28;20033;-78
2021/12/13 01:56:00;;;;;;;22.53;16.63;;;10.20;99.90;;;;;;5052587;28;20037;-77
2021/12/13 02:01:09;;;;;;;21.80;18.13;;;10.20;99.90;;;;;;5051544;28;20123;-78
2021/12/13 02:03:50;;;;;;;23.98;17.95;;;10.20;99.90;;;;;;5056674;28;20031;-77
2021/12/13 02:06:22;;;;;;;21.33;16.07;;;10.20;99.90;;;;;;5055235;28;20036;-79
2021/12/13 02:08:52;;;;;;;21.52;16.13;;;10.20;99.90;;;;;;5055330;28;20116;-78
2021/12/13 02:11:19;;;;;;;18.27;14.30;;;10.20;99.90;;;;;;5056194;28;20059;-78
2021/12/13 02:14:04;;;;;;;20.60;16.60;;;10.20;99.90;;;;;;5055149;28;20032;-81
2021/12/13 02:19:43;;;;;;;17.17;14.60;;;10.10;99.90;;;;;;5057465;28;20036;-78
2021/12/13 02:22:19;;;;;;;19.50;15.80;;;10.10;99.90;;;;;;5053758;28;20037;-78
2021/12/13 02:24:46;;;;;;;19.30;16.50;;;10.10;99.90;;;;;;5054978;28;20036;-79
2021/12/13 02:27:13;;;;;;;18.27;14.50;;;10.10;99.90;;;;;;5054305;28;20068;-79
2021/12/13 02:29:39;;;;;;;17.57;14.87;;;10.10;99.90;;;;;;5056187;28;20029;-78
2021/12/13 02:32:08;;;;;;;18.57;15.07;;;10.10;99.90;;;;;;5037870;28;20036;-77
2021/12/13 02:34:38;;;;;;;18.87;14.80;;;10.10;99.90;;;;;;5054207;28;20048;-79
2021/12/13 02:37:06;;;;;;;18.17;14.90;;;10.00;99.90;;;;;;5054598;28;20021;-78
2021/12/13 02:39:40;;;;;;;18.50;15.93;;;10.00;99.90;;;;;;5054879;28;20033;-78
2021/12/13 02:42:09;;;;;;;18.73;15.37;;;10.10;99.90;;;;;;5055546;28;20048;-78
2021/12/13 02:44:42;;;;;;;19.60;15.57;;;10.10;99.90;;;;;;5054228;28;20025;-77
2021/12/13 02:47:30;;;;;;;16.42;13.90;;;10.10;99.90;;;;;;5055010;28;20335;-78
2021/12/13 02:49:57;;;;;;;18.77;14.70;;;10.00;99.90;;;;;;5055497;28;20043;-78
2021/12/13 02:52:24;;;;;;;18.23;15.40;;;10.00;99.90;;;;;;5055366;28;20028;-78
2021/12/13 02:54:58;;;;;;;19.27;15.77;;;10.10;99.90;;;;;;5054420;28;20385;-80
2021/12/13 02:57:46;;;;;;;18.80;15.13;;;10.10;99.90;;;;;;5055916;28;20028;-77
2021/12/13 03:00:21;;;;;;;18.03;14.83;;;10.10;99.90;;;;;;5054008;28;20017;-77
2021/12/13 03:02:52;;;;;;;16.83;13.97;;;10.10;99.90;;;;;;5054560;28;20412;-78
2021/12/13 03:05:24;;;;;;;17.13;13.87;;;10.10;99.90;;;;;;5054954;28;20044;-78
2021/12/13 03:07:55;;;;;;;17.43;14.10;;;10.10;99.90;;;;;;5055781;28;20087;-78
2021/12/13 03:10:25;;;;;;;18.53;14.77;;;10.10;99.90;;;;;;5055314;28;20102;-77
2021/12/13 03:12:51;;;;;;;20.70;14.87;;;10.10;99.90;;;;;;5053292;28;20032;-80
2021/12/13 03:15:21;;;;;;;15.07;13.20;;;10.00;99.90;;;;;;5054888;28;20068;-79
2021/12/13 03:17:57;;;;;;;18.47;13.97;;;10.10;99.90;;;;;;5054821;28;20055;-78
2021/12/13 03:21:00;;;;;;;14.57;12.40;;;10.10;99.90;;;;;;5056843;28;20433;-79
2021/12/13 03:24:07;;;;;;;17.92;14.25;;;10.10;99.90;;;;;;5054678;28;20032;-78
2021/12/13 03:26:43;;;;;;;18.23;12.93;;;10.00;99.90;;;;;;5016099;28;20030;-79
2021/12/13 03:29:20;;;;;;;15.40;12.63;;;10.00;99.90;;;;;;5051353;28;20053;-80
2021/12/13 03:31:53;;;;;;;15.90;13.17;;;10.00;99.90;;;;;;5053774;28;20461;-78
2021/12/13 03:34:24;;;;;;;18.03;13.93;;;9.90;99.90;;;;;;5053306;28;20075;-81
2021/12/13 03:37:07;;;;;;;17.73;14.03;;;9.90;99.90;;;;;;5054400;28;20052;-79
2021/12/13 03:39:43;;;;;;;17.67;13.80;;;9.80;99.90;;;;;;5053650;28;20083;-78
2021/12/13 03:42:14;;;;;;;16.97;13.43;;;9.80;99.90;;;;;;5054705;28;20465;-78
2021/12/13 03:44:46;;;;;;;15.63;13.00;;;9.90;99.90;;;;;;5053464;28;20044;-79
2021/12/13 03:47:33;;;;;;;15.48;12.52;;;9.90;99.90;;;;;;5054399;28;20033;-78
2021/12/13 03:50:03;;;;;;;17.13;13.03;;;9.90;99.90;;;;;;5053264;28;20132;-78
2021/12/13 03:52:31;;;;;;;16.57;13.23;;;9.90;99.90;;;;;;5053279;28;20079;-79
2021/12/13 03:55:00;;;;;;;15.13;12.43;;;9.90;99.90;;;;;;5054249;28;20028;-82
2021/12/13 03:57:29;;;;;;;16.60;13.00;;;9.90;99.90;;;;;;5054489;28;20055;-78
2021/12/13 03:59:57;;;;;;;15.20;12.37;;;9.90;99.90;;;;;;5037154;28;20086;-79
2021/12/13 04:02:37;;;;;;;15.10;12.53;;;9.90;99.90;;;;;;5056635;28;20507;-78
2021/12/13 04:05:16;;;;;;;15.80;12.80;;;9.90;99.90;;;;;;5053998;28;20032;-78
2021/12/13 04:07:45;;;;;;;17.37;12.77;;;9.80;99.90;;;;;;5052827;28;20044;-79
2021/12/13 04:10:19;;;;;;;14.23;11.87;;;9.80;99.90;;;;;;5052611;28;20465;-79
2021/12/13 04:12:50;;;;;;;16.97;12.73;;;9.90;99.90;;;;;;5052524;28;20021;-79
2021/12/13 04:15:25;;;;;;;16.33;12.50;;;9.80;99.90;;;;;;5052930;28;20036;-79
2021/12/13 04:18:01;;;;;;;16.80;12.30;;;9.90;99.90;;;;;;5053634;28;20017;-80
2021/12/13 04:20:32;;;;;;;14.27;12.00;;;9.90;99.90;;;;;;5054695;28;20112;-78
2021/12/13 04:23:07;;;;;;;17.10;13.10;;;9.80;99.90;;;;;;5053378;28;20029;-81
2021/12/13 04:25:37;;;;;;;16.50;13.00;;;9.90;99.90;;;;;;5052410;28;20032;-78
2021/12/13 04:28:05;;;;;;;14.70;12.27;;;9.90;99.90;;;;;;5053630;28;20032;-80
2021/12/13 04:31:04;;;;;;;14.77;12.13;;;9.80;99.90;;;;;;5053851;28;20411;-78
2021/12/13 04:33:43;;;;;;;14.40;11.43;;;9.80;99.90;;;;;;5044647;28;20503;-78
2021/12/13 04:36:15;;;;;;;18.20;12.73;;;9.90;99.90;;;;;;5052482;28;20047;-79
2021/12/13 04:38:50;;;;;;;14.15;11.98;;;9.90;99.90;;;;;;5054169;28;20373;-79
2021/12/13 04:41:38;;;;;;;15.27;11.87;;;9.90;99.90;;;;;;5053213;28;20461;-79
2021/12/13 04:44:11;;;;;;;15.73;12.20;;;9.80;99.90;;;;;;5052437;28;20049;-78
2021/12/13 04:46:39;;;;;;;;;;;9.80;99.90;;;;;;5052871;28;20124;-78
2021/12/13 04:49:14;;;;;;;15.47;11.70;;;9.80;99.90;;;;;;5052045;28;19912;-79
2021/12/13 04:51:46;;;;;;;14.53;11.73;;;9.90;99.90;;;;;;5052089;28;20029;-79
2021/12/13 04:54:15;;;;;;;12.90;11.50;;;9.90;99.90;;;;;;5052049;28;20078;-77
2021/12/13 04:56:42;;;;;;;13.50;10.90;;;9.90;99.90;;;;;;5052263;28;20032;-79
2021/12/13 04:59:10;;;;;;;13.30;10.93;;;9.90;99.90;;;;;;5052154;28;20484;-80
2021/12/13 05:01:37;;;;;;;12.73;10.87;;;9.90;99.90;;;;;;5052029;28;20122;-79
2021/12/13 05:04:05;;;;;;;11.50;9.73;;;9.90;99.90;;;;;;5035423;28;20160;-82
2021/12/13 05:06:34;;;;;;;13.40;10.20;;;9.90;99.90;;;;;;5054817;28;20069;-80
2021/12/13 05:09:03;;;;;;;13.70;10.13;;;9.90;99.90;;;;;;5054966;28;20461;-80
2021/12/13 05:11:33;;;;;;;13.27;10.73;;;9.90;99.90;;;;;;5053947;28;20461;-79
2021/12/13 05:14:00;;;;;;;13.37;10.77;;;9.90;99.90;;;;;;5052112;28;20020;-79
2021/12/13 05:16:48;;;;;;;12.37;10.40;;;9.90;99.90;;;;;;5053179;28;20112;-78
2021/12/13 05:19:24;;;;;;;11.60;9.53;;;9.90;99.90;;;;;;5053139;28;20021;-80
2021/12/13 05:21:51;;;;;;;12.80;9.70;;;9.80;99.90;;;;;;5052773;28;20154;-79
2021/12/13 05:24:23;;;;;;;10.87;9.27;;;9.80;99.90;;;;;;5052990;28;20033;-81
2021/12/13 05:26:55;;;;;;;12.93;9.73;;;9.80;99.90;;;;;;5053063;28;20045;-79
2021/12/13 05:29:26;;;;;;;12.77;10.33;;;9.80;99.90;;;;;;5053336;28;20146;-79
2021/12/13 05:32:05;;;;;;;13.67;10.37;;;9.80;99.90;;;;;;5051700;28;20049;-80
2021/12/13 05:34:37;;;;;;;13.47;10.20;;;9.80;99.90;;;;;;5051375;28;20056;-80
2021/12/13 05:37:06;;;;;;;10.70;9.60;;;9.70;99.90;;;;;;5054321;28;20146;-78
2021/12/13 05:39:33;;;;;;;10.43;9.17;;;9.70;99.90;;;;;;5057150;28;20025;-80
2021/12/13 05:42:09;;;;;;;11.53;9.27;;;9.80;99.90;;;;;;5055411;28;20033;-79
2021/12/13 05:44:42;;;;;;;14.87;10.10;;;9.80;99.90;;;;;;5056405;28;20029;-80
2021/12/13 05:47:22;;;;;;;11.85;9.63;;;9.80;99.90;;;;;;5055392;28;20027;-84
2021/12/13 05:49:49;;;;;;;11.87;9.07;;;9.80;99.90;;;;;;5056447;28;20052;-79
2021/12/13 05:52:23;;;;;;;10.27;9.23;;;9.90;99.90;;;;;;5055366;28;20116;-80
2021/12/13 05:54:57;;;;;;;10.03;8.50;;;9.90;99.90;;;;;;5056614;28;20025;-79
2021/12/13 05:57:25;;;;;;;11.73;9.10;;;9.80;99.90;;;;;;5055329;28;20021;-79
2021/12/13 05:59:51;;;;;;;11.40;8.80;;;9.80;99.90;;;;;;5056500;28;20017;-79
2021/12/13 06:02:30;;;;;;;12.17;9.37;;;9.80;99.90;;;;;;5057264;28;20539;-79
2021/12/13 06:05:19;;;;;;;11.73;9.03;;;9.80;99.90;;;;;;5057634;28;20037;-79
2021/12/13 06:07:55;;;;;;;12.77;9.57;;;9.80;99.90;;;;;;5057083;28;20025;-78
2021/12/13 06:10:21;;;;;;;10.17;9.07;;;9.80;99.90;;;;;;5056442;28;20059;-78
2021/12/13 06:12:58;;;;;;;12.03;9.43;;;9.80;99.90;;;;;;5056860;28;20122;-80
2021/12/13 06:15:31;;;;;;;11.63;9.00;;;9.80;99.90;;;;;;5057013;28;20025;-79
2021/12/13 06:18:11;;;;;;;11.88;9.02;;;9.80;99.90;;;;;;5056869;28;20021;-80
2021/12/13 06:20:54;;;;;;;12.40;9.23;;;9.80;99.90;;;;;;5055247;28;20021;-80
2021/12/13 06:23:30;;;;;;;11.80;8.82;;;9.80;99.90;;;;;;5056694;28;20057;-80
2021/12/13 06:26:02;;;;;;;10.73;9.17;;;9.80;99.90;;;;;;5056224;28;20029;-79
2021/12/13 06:28:37;;;;;;;11.02;8.57;;;9.80;99.90;;;;;;5055936;28;20488;-79
2021/12/13 06:31:10;;;;;;;9.93;8.90;;;9.80;99.90;;;;;;5054620;28;20461;-79
2021/12/13 06:33:45;;;;;;;9.90;8.88;;;9.80;99.90;;;;;;5054408;28;20041;-79
2021/12/13 06:36:11;;;;;;;10.67;9.17;;;9.80;99.90;;;;;;5054406;28;20061;-81
2021/12/13 06:38:49;;;;;;;12.07;10.23;;;9.80;99.90;;;;;;5054356;28;20083;-79
2021/12/13 06:41:26;;;;;;;12.83;9.97;;;9.80;99.90;;;;;;5054514;28;20070;-79
2021/12/13 06:44:00;;;;;;;12.63;10.97;;;9.90;99.90;;;;;;5054656;28;20059;-78
2021/12/13 06:46:25;;;;;;;12.10;9.90;;;9.80;99.90;;;;;;5054869;28;20040;-79
2021/12/13 06:49:07;;;;;;;11.23;10.03;;;9.90;99.90;;;;;;5055067;28;20092;-79
2021/12/13 06:51:56;;;;;;;13.13;10.37;;;9.80;99.90;;;;;;5055353;28;20100;-78
2021/12/13 06:54:25;;;;;;;10.53;9.10;;;9.90;99.90;;;;;;5045460;28;20037;-79
2021/12/13 06:57:19;;;;;;;12.30;9.60;;;9.80;99.90;;;;;;5054750;28;20098;-77
2021/12/13 07:00:01;;;;;;;11.67;9.77;;;9.80;99.90;;;;;;5055174;28;20033;-79
2021/12/13 07:02:35;;;;;;;12.10;9.83;;;9.90;99.90;;;;;;5055083;28;20063;-79
2021/12/13 07:05:10;;;;;;;10.90;8.60;;;9.90;99.90;;;;;;5053821;28;20072;-79
2021/12/13 07:07:55;;;;;;;10.60;9.03;;;9.90;99.90;;;;;;5053572;28;20553;-79
2021/12/13 07:10:33;;;;;;;11.87;10.07;;;9.80;99.90;;;;;;5054568;28;20356;-78
2021/12/13 07:13:05;;;;;;;12.37;10.10;;;9.80;99.90;;;;;;5053794;28;20025;-79
2021/12/13 07:15:44;;;;;;;11.47;8.23;;;9.80;99.90;;;;;;5053932;28;20112;-78
2021/12/13 07:18:20;;;;;;;11.57;8.50;;;9.80;99.90;;;;;;5054877;28;20029;-77
2021/12/13 07:20:54;;;;;;;9.03;7.30;;;9.80;99.90;;;;;;5054381;28;20017;-79
2021/12/13 07:23:21;;;;;;;11.23;8.30;;;9.80;99.90;;;;;;5053464;28;20024;-78
2021/12/13 07:25:49;;;;;;;9.43;8.33;;;9.80;99.90;;;;;;5054387;28;20040;-79
2021/12/13 07:28:34;;;;;;;9.23;8.27;;;9.80;99.90;;;;;;5053334;28;20032;-80
2021/12/13 07:31:02;;;;;;;11.40;8.00;;;9.80;99.90;;;;;;5054482;28;20474;-79
2021/12/13 07:33:44;;;;;;;12.17;10.07;;;9.80;99.90;;;;;;5053172;28;20064;-79
2021/12/13 07:36:17;;;;;;;12.87;9.40;;;9.80;99.90;;;;;;5053317;28;20492;-79
2021/12/13 07:39:00;;;;;;;9.43;8.27;;;9.80;99.90;;;;;;5054525;28;20028;-78
2021/12/13 07:41:49;;;;;;;9.45;8.45;;;9.80;99.90;;;;;;5053072;28;20123;-77
2021/12/13 07:44:25;;;;;;;11.03;8.40;;;9.90;99.90;;;;;;5052989;28;20032;-80
2021/12/13 07:47:07;;;;;;;8.23;7.40;;;9.80;99.90;;;;;;5052948;28;20120;-78
2021/12/13 07:49:36;;;;;;;10.20;8.83;;;9.80;99.90;;;;;;5054179;28;20017;-79
2021/12/13 07:52:05;;;;;;;11.47;9.83;;;9.90;99.90;;;;;;5054894;28;20032;-80
2021/12/13 07:54:40;;;;;;;9.80;8.40;;;9.90;99.90;;;;;;5052891;28;20023;-78
2021/12/13 07:57:26;;;;;;;11.00;9.00;;;9.90;99.90;;;;;;5054272;28;20473;-79
2021/12/13 07:59:53;;;;;;;10.37;8.77;;;9.90;99.90;;;;;;5053366;28;20492;-79
2021/12/13 08:02:33;;;;;;;9.10;7.20;;;9.90;99.90;;;;;;5036422;28;20025;-79
2021/12/13 08:05:11;;;;;;;10.63;8.80;;;10.00;99.90;;;;;;5052376;28;20033;-77
2021/12/13 08:08:00;;;;;;;8.90;7.97;;;9.90;99.90;;;;;;5053784;28;20017;-78
2021/12/13 08:10:30;;;;;;;9.73;8.27;;;9.90;99.90;;;;;;5052732;28;20362;-80
2021/12/13 08:13:02;;;;;;;9.93;7.27;;;9.90;99.90;;;;;;5053909;28;20087;-80
2021/12/13 08:15:41;;;;;;;7.95;6.95;;;9.90;99.90;;;;;;5053000;28;20024;-78
2021/12/13 08:18:24;;;;;;;10.30;8.10;;;9.90;99.90;;;;;;5054602;28;20033;-80
2021/12/13 08:21:05;;;;;;;9.35;8.07;;;9.80;99.90;;;;;;5053211;28;20371;-78
2021/12/13 08:23:35;;;;;;;8.60;7.70;;;9.90;99.90;;;;;;5053780;28;20044;-80
2021/12/13 08:26:04;;;;;;;8.97;7.23;;;9.90;99.90;;;;;;5052466;28;20162;-81
2021/12/13 08:28:43;;;;;;;8.90;6.70;;;9.90;99.90;;;;;;5052346;28;20052;-79
2021/12/13 08:31:19;;;;;;;10.10;7.53;;;9.90;99.90;;;;;;5052859;28;20021;-81
2021/12/13 08:33:49;;;;;;;7.03;6.23;;;9.90;99.90;;;;;;5054516;28;20041;-80
2021/12/13 08:36:34;;;;;;;8.70;6.63;;;10.00;99.90;;;;;;5054309;28;20078;-80
2021/12/13 08:39:19;;;;;;;7.97;7.10;;;10.00;99.90;;;;;;5053632;28;20033;-80
2021/12/13 08:41:53;;;;;;;8.60;7.17;;;10.00;99.90;;;;;;5052201;28;20017;-80
2021/12/13 08:44:21;;;;;;;8.13;6.33;;;10.00;99.90;;;;;;5052753;28;20513;-79
2021/12/13 08:46:55;;;;;;;8.10;6.10;;;10.00;99.90;;;;;;5053742;28;20091;-79
2021/12/13 08:49:29;;;;;;;9.63;7.43;;;10.10;99.90;;;;;;5052875;28;20025;-79
2021/12/13 08:52:04;;;;;;;8.47;6.90;;;10.10;99.90;;;;;;5052818;28;20029;-79
2021/12/13 08:54:39;;;;;;;9.27;7.03;;;10.00;99.90;;;;;;5052559;28;20033;-79
2021/12/13 08:57:10;;;;;;;7.57;6.53;;;10.10;99.90;;;;;;5052265;28;20029;-80
2021/12/13 08:59:48;;;;;;;9.73;6.87;;;10.10;99.90;;;;;;5052841;28;20082;-80
2021/12/13 09:02:14;;;;;;;8.80;6.80;;;10.10;99.90;;;;;;5052504;28;20036;-80
2021/12/13 09:05:02;;;;;;;8.03;6.37;;;10.10;99.90;;;;;;5052078;28;20033;-80
2021/12/13 09:07:29;;;;;;;12.27;7.53;;;10.10;99.90;;;;;;5051675;28;20039;-82
2021/12/13 09:09:55;;;;;;;10.40;6.93;;;10.10;99.90;;;;;;5053160;28;20109;-80
2021/12/13 09:12:43;;;;;;;9.20;6.90;;;10.10;99.90;;;;;;5037797;28;20358;-81
2021/12/13 09:15:23;;;;;;;9.70;6.43;;;10.10;99.90;;;;;;5057875;28;20087;-80
2021/12/13 09:17:50;;;;;;;10.50;7.20;;;10.10;99.90;;;;;;5056364;28;20491;-79
2021/12/13 09:20:18;;;;;;;7.83;6.40;;;10.10;99.90;;;;;;5041014;28;20128;-80
2021/12/13 09:22:56;;;;;;;9.57;6.83;;;10.10;99.90;;;;;;5055990;28;20373;-81
2021/12/13 09:25:44;;;;;;;8.60;6.23;;;10.20;99.90;;;;;;5056469;28;20465;-81
2021/12/13 09:28:18;;;;;;;10.23;7.43;;;10.20;99.90;;;;;;5057562;28;20028;-80
2021/12/13 09:30:57;;;;;;;10.63;7.37;;;10.20;99.90;;;;;;5056808;28;20033;-81
2021/12/13 09:33:29;;;;;;;17.60;9.40;;;10.20;99.90;;;;;;5058327;28;20146;-81
2021/12/13 09:36:00;;;;;;;19.48;11.30;;;10.20;99.90;;;;;;5057686;28;20025;-80
2021/12/13 09:38:31;;;;;;;13.90;8.60;;;10.20;99.90;;;;;;5056377;28;20024;-80
2021/12/13 09:41:04;;;;;;;16.23;8.90;;;10.20;99.90;;;;;;5056436;28;20025;-80
2021/12/13 09:43:48;;;;;;;13.90;8.13;;;10.20;99.90;;;;;;5055506;28;20456;-81
2021/12/13 09:46:19;;;;;;;14.90;10.03;;;10.30;99.90;;;;;;5056534;28;20118;-80
2021/12/13 09:48:52;;;;;;;14.10;8.67;;;10.30;99.90;;;;;;5055597;28;20021;-81
2021/12/13 09:51:27;;;;;;;7.40;5.70;;;10.30;99.90;;;;;;5055216;28;20234;-82
2021/12/13 09:53:56;;;;;;;12.80;9.10;;;10.30;99.90;;;;;;5057110;28;20056;-80
2021/12/13 09:56:25;;;;;;;7.67;6.07;;;10.20;99.90;;;;;;5057430;28;20029;-81
2021/12/13 09:58:59;;;;;;;8.67;6.60;;;10.30;99.90;;;;;;5056548;28;20029;-82
2021/12/13 10:01:38;;;;;;;10.53;8.00;;;10.20;99.90;;;;;;5056265;28;20461;-80
2021/12/13 10:04:10;;;;;;;17.97;13.13;;;10.30;99.90;;;;;;5056439;28;20021;-82
2021/12/13 10:06:41;;;;;;;15.63;11.63;;;10.30;99.90;;;;;;5057089;28;20029;-83
2021/12/13 10:09:21;;;;;;;15.47;10.63;;;10.30;99.90;;;;;;5057418;28;20025;-82
2021/12/13 10:12:20;;;;;;;18.90;14.33;;;10.40;99.90;;;;;;5056226;28;20093;-81
2021/12/13 10:15:05;;;;;;;14.70;11.67;;;10.40;99.90;;;;;;5046858;28;20488;-81
2021/12/13 10:17:33;;;;;;;13.87;10.60;;;10.40;99.90;;;;;;5054896;28;20171;-82
2021/12/13 10:20:07;;;;;;;18.10;12.83;;;10.50;99.90;;;;;;5056902;28;20096;-81
2021/12/13 10:22:33;;;;;;;13.63;11.17;;;10.50;99.90;;;;;;5055990;28;20028;-82
2021/12/13 10:25:09;;;;;;;9.47;8.33;;;10.50;99.90;;;;;;5038218;28;20041;-81
2021/12/13 10:27:35;;;;;;;15.40;12.60;;;10.50;99.90;;;;;;5055131;28;20032;-80
2021/12/13 10:30:09;;;;;;;20.23;13.70;;;10.50;99.90;;;;;;5058138;28;20040;-79
2021/12/13 10:32:37;;;;;;;14.90;11.53;;;10.60;99.90;;;;;;5057429;28;20053;-81
2021/12/13 10:35:14;;;;;;;10.60;8.53;;;10.60;99.90;;;;;;5055029;28;20041;-81
2021/12/13 10:37:45;;;;;;;16.13;12.23;;;10.60;99.90;;;;;;5055842;28;20087;-82
2021/12/13 10:40:22;;;;;;;13.23;8.93;;;10.60;99.90;;;;;;5055712;28;20063;-81
2021/12/13 10:43:17;;;;;;;3.40;2.60;;;10.70;99.90;;;;;;5055450;28;20420;-81
2021/12/13 10:45:48;;;;;;;5.83;4.43;;;10.60;99.90;;;;;;5053352;28;20052;-81
2021/12/13 10:48:15;;;;;;;9.83;7.90;;;10.60;99.90;;;;;;5054443;28;20025;-80
2021/12/13 10:50:52;;;;;;;7.97;5.57;;;10.60;99.90;;;;;;5055713;28;20028;-81
2021/12/13 10:53:21;;;;;;;6.70;4.30;;;10.60;99.90;;;;;;5054063;28;20029;-81
2021/12/13 10:56:01;;;;;;;10.47;7.53;;;10.60;99.90;;;;;;5054413;28;20115;-81
2021/12/13 10:58:31;;;;;;;7.27;5.97;;;10.60;99.90;;;;;;5055565;28;20048;-81
2021/12/13 11:01:19;;;;;;;17.23;12.93;;;10.60;99.90;;;;;;5054416;28;20021;-81
2021/12/13 11:03:46;;;;;;;11.73;8.13;;;10.70;99.90;;;;;;5053870;28;20020;-81
2021/12/13 11:06:16;;;;;;;10.77;8.73;;;10.80;99.90;;;;;;5054180;28;20120;-82
2021/12/13 11:08:42;;;;;;;9.43;6.20;;;10.80;99.90;;;;;;5054081;28;20053;-82
2021/12/13 11:11:19;;;;;;;8.67;6.80;;;10.80;99.90;;;;;;5037947;28;20044;-82
2021/12/13 11:13:48;;;;;;;9.33;6.90;;;10.80;99.90;;;;;;5054048;28;20458;-80
2021/12/13 11:16:19;;;;;;;7.20;5.43;;;10.80;99.90;;;;;;5055563;28;20079;-81
2021/12/13 11:18:45;;;;;;;8.40;7.03;;;10.90;99.90;;;;;;5054019;28;20120;-81
2021/12/13 11:21:26;;;;;;;6.33;5.23;;;10.90;99.90;;;;;;5054110;28;20099;-81
2021/12/13 11:23:53;;;;;;;10.17;7.17;;;10.90;99.90;;;;;;5055006;28;20035;-81
2021/12/13 11:26:23;;;;;;;7.60;4.23;;;10.90;99.90;;;;;;5054821;28;20036;-81
2021/12/13 11:28:49;;;;;;;6.47;5.20;;;10.80;99.90;;;;;;5053716;28;20020;-81
2021/12/13 11:31:53;;;;;;;4.77;2.20;;;10.80;99.90;;;;;;5054872;28;20479;-81
2021/12/13 11:34:46;;;;;;;5.03;3.97;;;10.80;99.60;;;;;;5053252;28;20158;-80
2021/12/13 11:37:24;;;;;;;6.90;4.13;;;10.80;99.70;;;;;;5054271;28;20111;-80
2021/12/13 11:40:09;;;;;;;5.40;4.43;;;10.70;99.60;;;;;;5054658;28;20032;-80
2021/12/13 11:42:49;;;;;;;6.47;5.60;;;10.80;99.80;;;;;;5053340;28;20164;-82
2021/12/13 11:45:53;;;;;;;5.30;3.83;;;10.80;99.90;;;;;;5054765;28;20234;-80
2021/12/13 11:48:27;;;;;;;6.15;3.90;;;10.80;99.60;;;;;;5053185;28;20481;-80
2021/12/13 11:51:17;;;;;;;5.73;2.97;;;10.80;99.80;;;;;;5054219;28;20031;-80
2021/12/13 11:54:08;;;;;;;5.07;3.60;;;10.80;99.30;;;;;;5053418;28;20048;-80
2021/12/13 11:57:11;;;;;;;4.70;2.87;;;10.80;99.30;;;;;;5054646;28;20044;-80
2021/12/13 11:59:59;;;;;;;3.92;3.20;;;10.80;99.20;;;;;;5053270;28;20025;-80
2021/12/13 12:02:53;;;;;;;4.80;2.40;;;10.80;99.00;;;;;;5052629;28;20063;-80
2021/12/13 12:05:55;;;;;;;6.28;3.17;;;10.70;98.90;;;;;;5054432;28;20025;-79
2021/12/13 12:08:48;;;;;;;2.23;1.53;;;10.80;99.10;;;;;;5053022;28;20461;-79
2021/12/13 12:11:39;;;;;;;3.03;1.80;;;10.70;98.50;;;;;;5052804;28;20028;-79
2021/12/13 12:14:11;;;;;;;2.90;2.10;;;10.70;98.50;;;;;;5053031;28;20488;-79
2021/12/13 12:16:44;;;;;;;5.35;2.70;;;10.70;98.60;;;;;;5053953;28;20107;-79
2021/12/13 12:19:19;;;;;;;3.80;2.67;;;10.70;98.60;;;;;;5053073;28;20029;-80
2021/12/13 12:21:54;;;;;;;5.23;3.67;;;10.80;98.80;;;;;;5052898;28;20021;-79
2021/12/13 12:24:28;;;;;;;5.47;3.60;;;10.80;98.90;;;;;;5053933;28;20053;-79
2021/12/13 12:27:01;;;;;;;6.27;3.27;;;10.90;98.90;;;;;;5052601;28;20462;-79
2021/12/13 12:29:30;;;;;;;5.40;3.55;;;10.90;98.90;;;;;;5052672;28;20392;-79
2021/12/13 12:32:01;;;;;;;3.83;3.23;;;10.90;99.00;;;;;;5052337;28;20488;-80
2021/12/13 12:34:27;;;;;;;5.67;3.23;;;10.90;99.00;;;;;;5052184;28;20056;-81
2021/12/13 12:36:59;;;;;;;4.37;3.60;;;10.90;98.90;;;;;;5052460;28;20025;-80
2021/12/13 12:39:52;;;;;;;7.53;3.60;;;10.90;99.10;;;;;;5052096;28;20067;-80
2021/12/13 12:42:31;;;;;;;5.93;4.32;;;10.90;99.10;;;;;;5052241;28;20083;-80
2021/12/13 12:44:57;;;;;;;5.27;3.90;;;10.90;99.10;;;;;;5052358;28;20025;-80
2021/12/13 12:47:57;;;;;;;4.07;3.67;;;10.90;99.20;;;;;;5052296;28;20428;-80
2021/12/13 12:50:26;;;;;;;3.77;2.23;;;10.90;99.00;;;;;;5052037;28;20484;-80
2021/12/13 12:52:54;;;;;;;4.17;2.67;;;10.90;98.80;;;;;;5051621;28;20053;-80
2021/12/13 12:55:29;;;;;;;6.57;2.70;;;10.90;98.80;;;;;;5052128;28;20047;-80
2021/12/13 12:57:58;;;;;;;5.10;3.60;;;10.80;98.70;;;;;;5053218;28;20465;-80
2021/12/13 13:00:28;;;;;;;5.83;4.80;;;10.80;98.80;;;;;;5052283;28;20063;-80
2021/12/13 13:02:54;;;;;;;8.63;5.97;;;10.80;99.00;;;;;;5053483;28;20025;-81
2021/12/13 13:05:23;;;;;;;8.17;6.53;;;10.80;99.10;;;;;;5051817;28;20039;-79
2021/12/13 13:07:51;;;;;;;8.17;5.73;;;10.90;99.20;;;;;;5053388;28;20029;-79
2021/12/13 13:10:26;;;;;;;8.27;5.97;;;10.90;99.20;;;;;;5052207;28;20036;-79
2021/12/13 13:12:56;;;;;;;7.57;5.90;;;11.00;99.20;;;;;;5052758;28;20029;-81
2021/12/13 13:15:34;;;;;;;4.43;3.10;;;10.90;99.20;;;;;;5053397;28;20060;-81
2021/12/13 13:18:02;;;;;;;5.97;4.20;;;10.90;99.00;;;;;;5052018;28;20125;-80
2021/12/13 13:20:41;;;;;;;4.77;3.40;;;10.90;98.90;;;;;;5053177;28;20488;-80
2021/12/13 13:23:08;;;;;;;8.83;6.57;;;10.90;98.90;;;;;;5057412;28;20021;-80
2021/12/13 13:25:44;;;;;;;10.47;7.23;;;10.90;99.00;;;;;;5054926;28;20033;-80
2021/12/13 13:28:22;;;;;;;6.27;5.13;;;10.90;99.10;;;;;;5054219;28;20025;-81
2021/12/13 13:31:03;;;;;;;6.60;4.40;;;10.90;99.00;;;;;;5052061;28;20027;-80
2021/12/13 13:33:37;;;;;;;9.97;6.47;;;10.90;98.90;;;;;;5052480;28;20045;-80